createdAt,value
2019-05-16T00:00:08.406Z,94669.59
2019-05-16T00:02:33.434Z,94672.24
2019-05-16T00:04:59.468Z,94676.23
2019-05-16T00:07:28.172Z,94678.06
2019-05-16T00:09:51.495Z,94681.55
2019-05-16T00:12:18.414Z,94679.39
2019-05-16T00:14:43.528Z,94681.14
2019-05-16T00:17:09.557Z,94676.31
2019-05-16T00:19:35.567Z,94675.41
2019-05-16T00:22:01.587Z,94667.52
2019-05-16T00:24:29.133Z,94663.52
2019-05-16T00:26:53.602Z,94662.11
2019-05-16T00:29:19.622Z,94660.87
2019-05-16T00:31:45.637Z,94661.70
2019-05-16T00:34:11.750Z,94654.75
2019-05-16T00:36:38.298Z,94653.02
2019-05-16T00:39:03.786Z,94651.68
2019-05-16T00:41:29.780Z,94648.61
2019-05-16T00:43:57.617Z,94652.18
2019-05-16T00:46:21.792Z,94649.02
2019-05-16T00:48:48.725Z,94647.69
2019-05-16T00:51:13.815Z,94639.80
2019-05-16T00:53:39.815Z,94633.16
2019-05-16T00:56:07.776Z,94638.89
2019-05-16T00:58:31.845Z,94634.48
2019-05-16T01:00:59.289Z,94631.83
2019-05-16T01:03:25.546Z,94630.12
2019-05-16T01:05:51.534Z,94627.45
2019-05-16T01:08:18.888Z,94630.91
2019-05-16T01:10:43.557Z,94629.17
2019-05-16T01:13:09.579Z,94629.17
2019-05-16T01:15:37.865Z,94627.05
2019-05-16T01:18:01.597Z,94622.64
2019-05-16T01:20:28.002Z,94631.45
2019-05-16T01:22:53.590Z,94628.88
2019-05-16T01:25:19.749Z,94629.17
2019-05-16T01:27:47.602Z,94627.05
2019-05-16T01:30:11.637Z,94629.29
2019-05-16T01:32:39.220Z,94628.46
2019-05-16T01:35:03.711Z,94621.41
2019-05-16T01:37:29.727Z,94611.59
2019-05-16T01:39:55.762Z,94605.57
2019-05-16T01:42:21.763Z,94622.73
2019-05-16T01:44:48.684Z,94611.72
2019-05-16T01:47:13.792Z,94602.41
2019-05-16T01:49:39.810Z,94602.00
2019-05-16T01:52:05.808Z,94599.34
2019-05-16T01:54:31.834Z,94596.68
2019-05-16T01:56:59.445Z,94605.16
2019-05-16T01:59:23.873Z,94601.58
2019-05-16T02:01:49.893Z,94608.23
2019-05-16T02:04:18.209Z,94605.16
2019-05-16T02:06:51.722Z,94614.88
2019-05-16T02:09:08.121Z,94617.53
2019-05-16T02:11:33.952Z,94613.25
2019-05-16T02:13:59.957Z,94619.36
2019-05-16T02:16:27.826Z,94618.56
2019-05-16T02:18:51.975Z,94611.92
2019-05-16T02:21:18.339Z,94606.69
2019-05-16T02:23:43.996Z,94608.44
2019-05-16T02:26:09.982Z,94606.69
2019-05-16T02:28:40.180Z,94607.61
2019-05-16T02:31:02.028Z,94609.34
2019-05-16T02:33:31.422Z,94615.58
2019-05-16T02:35:55.612Z,94609.85
2019-05-16T02:38:21.190Z,94623.14
2019-05-16T02:40:46.114Z,94618.77
2019-05-16T02:43:12.642Z,94611.59
2019-05-16T02:45:41.324Z,94605.06
2019-05-16T02:48:04.213Z,94603.73
2019-05-16T02:50:31.547Z,94601.08
2019-05-16T02:52:56.265Z,94604.66
2019-05-16T02:55:22.250Z,94601.50
2019-05-16T02:57:50.727Z,94608.23
2019-05-16T03:00:14.283Z,94608.23
2019-05-16T03:02:41.974Z,94604.73
2019-05-16T03:05:06.344Z,94607.31
2019-05-16T03:07:41.120Z,94617.12
2019-05-16T03:10:01.616Z,94618.03
2019-05-16T03:12:24.398Z,94614.46
2019-05-16T03:14:54.174Z,94613.66
2019-05-16T03:17:16.413Z,94617.12
2019-05-16T03:19:42.430Z,94618.03
2019-05-16T03:22:11.418Z,94617.65
2019-05-16T03:24:34.490Z,94618.98
2019-05-16T03:27:01.631Z,94618.03
2019-05-16T03:29:26.592Z,94609.27
2019-05-16T03:31:54.102Z,94615.08
2019-05-16T03:34:24.902Z,94613.75
2019-05-16T03:36:44.722Z,94615.49
2019-05-16T03:39:10.850Z,94617.33
2019-05-16T03:41:36.699Z,94617.33
2019-05-16T03:44:02.693Z,94623.47
2019-05-16T03:46:30.925Z,94623.05
2019-05-16T03:48:54.719Z,94621.84
2019-05-16T03:51:21.521Z,94619.48
2019-05-16T03:53:46.826Z,94625.30
2019-05-16T03:56:12.850Z,94615.49
2019-05-16T03:58:41.607Z,94610.27
2019-05-16T04:01:04.887Z,94611.50
2019-05-16T04:03:33.150Z,94613.25
2019-05-16T04:05:57.011Z,94616.91
2019-05-16T04:08:24.988Z,94611.59
2019-05-16T04:10:51.712Z,94608.55
2019-05-16T04:13:15.071Z,94610.68
2019-05-16T04:15:41.064Z,94605.57
2019-05-16T04:18:07.100Z,94605.48
2019-05-16T04:20:33.107Z,94609.88
2019-05-16T04:23:01.114Z,94610.18
2019-05-16T04:25:25.131Z,94610.27
2019-05-16T04:27:51.176Z,94608.44
2019-05-16T04:30:17.224Z,94605.90
2019-05-16T04:32:43.359Z,94609.47
2019-05-16T04:35:11.309Z,94612.01
2019-05-16T04:37:35.540Z,94613.88
2019-05-16T04:40:01.895Z,94614.78
2019-05-16T04:42:30.743Z,94618.66
2019-05-16T04:44:53.662Z,94616.41
2019-05-16T04:47:21.032Z,94613.75
2019-05-16T04:49:45.964Z,94605.78
2019-05-16T04:52:11.957Z,94609.27
2019-05-16T04:54:41.486Z,94612.84
2019-05-16T04:57:04.298Z,94615.08
2019-05-16T04:59:31.286Z,94611.09
2019-05-16T05:01:56.502Z,94616.33
2019-05-16T05:04:22.556Z,94615.49
2019-05-16T05:06:51.009Z,94618.45
2019-05-16T05:09:14.602Z,94616.33
2019-05-16T05:11:41.251Z,94614.58
2019-05-16T05:14:06.606Z,94616.41
2019-05-16T05:16:32.624Z,94623.55
2019-05-16T05:19:00.343Z,94629.82
2019-05-16T05:21:24.705Z,94631.53
2019-05-16T05:23:50.999Z,94630.73
2019-05-16T05:26:16.768Z,94626.63
2019-05-16T05:28:42.766Z,94632.06
2019-05-16T05:31:10.847Z,94620.61
2019-05-16T05:33:34.806Z,94619.69
2019-05-16T05:36:01.291Z,94620.61
2019-05-16T05:38:26.894Z,94625.92
2019-05-16T05:40:53.008Z,94627.75
2019-05-16T05:43:21.596Z,94629.61
2019-05-16T05:45:45.282Z,94634.02
2019-05-16T05:48:11.494Z,94636.25
2019-05-16T05:50:40.010Z,94629.61
2019-05-16T05:53:03.737Z,94630.94
2019-05-16T05:55:31.300Z,94631.03
2019-05-16T05:57:55.859Z,94631.03
2019-05-16T06:00:21.893Z,94628.08
2019-05-16T06:02:47.887Z,94628.48
2019-05-16T06:05:13.947Z,94624.09
2019-05-16T06:07:40.432Z,94633.80
2019-05-16T06:10:05.986Z,94630.73
2019-05-16T06:12:31.991Z,94630.31
2019-05-16T06:15:05.898Z,94633.39
2019-05-16T06:17:24.024Z,94628.16
2019-05-16T06:19:50.025Z,94624.70
2019-05-16T06:22:16.165Z,94629.48
2019-05-16T06:24:42.164Z,94632.68
2019-05-16T06:27:09.847Z,94636.25
2019-05-16T06:29:34.194Z,94635.02
2019-05-16T06:32:00.302Z,94631.85
2019-05-16T06:34:26.373Z,94633.27
2019-05-16T06:36:52.492Z,94632.86
2019-05-16T06:39:19.877Z,94632.53
2019-05-16T06:41:44.513Z,94635.52
2019-05-16T06:44:10.793Z,94638.67
2019-05-16T06:46:44.468Z,94639.50
2019-05-16T06:49:02.719Z,94642.25
2019-05-16T06:51:30.532Z,94631.20
2019-05-16T06:53:54.762Z,94635.19
2019-05-16T06:56:20.872Z,94633.44
2019-05-16T06:58:51.007Z,94635.30
2019-05-16T07:01:12.893Z,94640.63
2019-05-16T07:03:40.109Z,94635.72
2019-05-16T07:06:04.977Z,94631.81
2019-05-16T07:08:31.343Z,94639.38
2019-05-16T07:10:57.014Z,94627.42
2019-05-16T07:13:23.023Z,94630.48
2019-05-16T07:15:50.027Z,94630.98
2019-05-16T07:18:15.082Z,94630.08
2019-05-16T07:20:41.099Z,94628.33
2019-05-16T07:23:07.164Z,94615.05
2019-05-16T07:25:33.182Z,94614.25
2019-05-16T07:28:00.683Z,94612.92
2019-05-16T07:30:25.208Z,94611.59
2019-05-16T07:32:51.230Z,94609.44
2019-05-16T07:35:17.236Z,94616.99
2019-05-16T07:37:43.285Z,94613.42
2019-05-16T07:40:19.358Z,94605.95
2019-05-16T07:42:35.307Z,94616.08
2019-05-16T07:45:01.315Z,94611.67
2019-05-16T07:47:27.333Z,94613.00
2019-05-16T07:49:53.444Z,94609.84
2019-05-16T07:52:20.914Z,94607.81
2019-05-16T07:54:45.505Z,94604.12
2019-05-16T07:57:19.651Z,94599.13
2019-05-16T07:59:37.639Z,94591.86
2019-05-16T08:02:03.669Z,94594.52
2019-05-16T08:04:30.398Z,94595.85
2019-05-16T08:06:55.678Z,94595.44
2019-05-16T08:09:21.704Z,94601.96
2019-05-16T08:11:50.026Z,94604.62
2019-05-16T08:14:13.734Z,94600.63
2019-05-16T08:19:05.846Z,94602.79
2019-05-16T08:21:31.909Z,94597.80
2019-05-16T08:24:05.814Z,94601.16
2019-05-16T08:26:24.035Z,94599.42
2019-05-16T08:28:50.556Z,94596.27
2019-05-16T08:31:16.170Z,94594.52
2019-05-16T08:33:42.179Z,94586.43
2019-05-16T08:36:11.630Z,94594.61
2019-05-16T08:38:34.205Z,94591.45
2019-05-16T08:41:11.515Z,94593.81
2019-05-16T08:43:26.311Z,94597.68
2019-05-16T08:45:52.312Z,94593.28
2019-05-16T08:48:22.683Z,94590.13
2019-05-16T08:50:04.936Z,94596.27
2019-05-16T08:55:36.689Z,94598.59
2019-05-16T08:58:02.903Z,94596.35
2019-05-16T09:00:33.313Z,94592.28
2019-05-16T09:02:54.938Z,94602.91
2019-05-16T09:05:22.589Z,94595.85
2019-05-16T09:07:47.001Z,94597.97
2019-05-16T09:10:14.343Z,94595.94
2019-05-16T09:10:38.789Z,94591.45
2019-05-16T09:10:45.923Z,94589.20
2019-05-16T09:12:39.040Z,94589.20
2019-05-16T09:15:07.587Z,94584.69
2019-05-16T09:17:31.059Z,94586.02
2019-05-16T09:19:57.799Z,94573.05
2019-05-16T09:22:23.451Z,94569.56
2019-05-16T09:24:49.464Z,94577.54
2019-05-16T09:27:17.902Z,94574.88
2019-05-16T09:29:41.473Z,94569.16
2019-05-16T09:32:15.885Z,94561.92
2019-05-16T09:34:33.516Z,94568.73
2019-05-16T09:37:01.154Z,94566.70
2019-05-16T09:39:27.715Z,94569.98
2019-05-16T09:41:55.610Z,94569.16
2019-05-16T09:44:18.739Z,94569.16
2019-05-16T09:46:43.649Z,94566.50
2019-05-16T09:49:19.413Z,94563.84
2019-05-16T09:51:37.683Z,94558.44
2019-05-16T09:54:01.756Z,94557.90
2019-05-16T09:56:27.749Z,94554.23
2019-05-16T09:58:53.789Z,94559.55
2019-05-16T10:01:19.796Z,94560.35
2019-05-16T10:03:47.751Z,94553.83
2019-05-16T10:06:11.828Z,94551.05
2019-05-16T10:08:37.876Z,94548.01
2019-05-16T10:11:06.184Z,94544.41
2019-05-16T10:13:29.881Z,94540.83
2019-05-16T10:15:55.894Z,94540.33
2019-05-16T10:18:21.901Z,94541.66
2019-05-16T10:20:47.919Z,94540.33
2019-05-16T10:23:15.044Z,94540.33
2019-05-16T10:25:39.951Z,94530.32
2019-05-16T10:28:05.977Z,94530.61
2019-05-16T10:30:31.963Z,94532.06
2019-05-16T10:33:00.774Z,94524.47
2019-05-16T10:35:24.018Z,94514.66
2019-05-16T10:37:50.018Z,94528.45
2019-05-16T10:40:18.302Z,94511.72
2019-05-16T10:42:42.053Z,94515.58
2019-05-16T10:45:08.891Z,94507.73
2019-05-16T10:47:36.900Z,94508.44
2019-05-16T10:50:00.297Z,94503.12
2019-05-16T10:52:27.003Z,94502.70
2019-05-16T10:54:58.454Z,94504.86
2019-05-16T10:57:18.428Z,94507.52
2019-05-16T11:00:01.857Z,94502.11
2019-05-16T11:02:10.411Z,94503.45
2019-05-16T11:04:52.639Z,94498.13
2019-05-16T11:07:02.381Z,94496.89
2019-05-16T11:09:28.490Z,94504.86
2019-05-16T11:11:56.975Z,94505.78
2019-05-16T11:14:20.542Z,94508.44
2019-05-16T11:16:47.361Z,94509.35
2019-05-16T11:19:18.268Z,94513.34
2019-05-16T11:21:38.581Z,94514.25
2019-05-16T11:24:06.298Z,94523.47
2019-05-16T11:26:31.146Z,94527.13
2019-05-16T11:28:57.138Z,94519.27
2019-05-16T11:31:23.158Z,94518.77
2019-05-16T11:33:49.150Z,94505.07
2019-05-16T11:36:16.722Z,94504.53
2019-05-16T11:38:41.212Z,94498.93
2019-05-16T11:41:07.423Z,94517.95
2019-05-16T11:43:33.262Z,94541.36
2019-05-16T11:45:59.281Z,94552.80
2019-05-16T11:48:28.854Z,94548.39
2019-05-16T11:50:51.302Z,94550.25
2019-05-16T11:53:17.674Z,94554.66
2019-05-16T11:55:51.817Z,94555.45
2019-05-16T11:58:09.472Z,94543.08
2019-05-16T12:00:37.243Z,94558.94
2019-05-16T12:03:01.493Z,94551.87
2019-05-16T12:05:27.507Z,94562.33
2019-05-16T12:07:56.924Z,94561.09
2019-05-16T12:10:19.521Z,94559.67
2019-05-16T12:12:45.648Z,94561.00
2019-05-16T12:15:11.659Z,94553.44
2019-05-16T12:17:37.687Z,94558.26
2019-05-16T12:20:03.691Z,94554.66
2019-05-16T12:22:29.718Z,94563.04
2019-05-16T12:24:57.379Z,94548.22
2019-05-16T12:27:21.785Z,94536.05
2019-05-16T12:29:54.151Z,94526.56
2019-05-16T12:32:13.815Z,94519.80
2019-05-16T12:34:39.837Z,94515.41
2019-05-16T12:37:08.575Z,94518.89
2019-05-16T12:39:37.642Z,94514.78
2019-05-16T12:42:00.622Z,94508.66
2019-05-16T12:44:26.973Z,94508.55
2019-05-16T12:46:52.665Z,94499.24
2019-05-16T12:49:18.670Z,94502.31
2019-05-16T12:51:46.497Z,94503.02
2019-05-16T12:54:10.688Z,94500.28
2019-05-16T12:56:37.675Z,94498.12
2019-05-16T12:59:02.717Z,94501.69
2019-05-16T13:01:33.970Z,94503.44
2019-05-16T13:03:54.927Z,94500.78
2019-05-16T13:06:20.925Z,94519.17
2019-05-16T13:08:46.963Z,94527.06
2019-05-16T13:11:12.960Z,94535.53
2019-05-16T13:13:38.961Z,94541.68
2019-05-16T13:16:07.322Z,94544.84
2019-05-16T13:18:31.003Z,94551.20
2019-05-16T13:20:57.485Z,94556.39
2019-05-16T13:23:23.110Z,94566.11
2019-05-16T13:25:49.148Z,94574.50
2019-05-16T13:28:15.294Z,94578.98
2019-05-16T13:30:41.291Z,94579.81
2019-05-16T13:33:07.493Z,94577.57
2019-05-16T13:35:33.427Z,94582.47
2019-05-16T13:37:59.440Z,94584.72
2019-05-16T13:40:27.546Z,94571.84
2019-05-16T13:42:53.890Z,94584.30
2019-05-16T13:45:19.914Z,94587.38
2019-05-16T13:47:48.837Z,94592.69
2019-05-16T13:50:12.737Z,94591.45
2019-05-16T13:52:37.971Z,94583.80
2019-05-16T13:55:04.061Z,94580.31
2019-05-16T13:57:30.087Z,94576.03
2019-05-16T13:59:56.741Z,94583.48
2019-05-16T14:02:22.116Z,94584.42
2019-05-16T14:04:48.141Z,94580.94
2019-05-16T14:07:16.980Z,94584.42
2019-05-16T14:09:40.526Z,94580.52
2019-05-16T14:12:06.784Z,94578.36
2019-05-16T14:14:37.989Z,94580.52
2019-05-16T14:16:58.593Z,94574.37
2019-05-16T14:19:27.317Z,94577.45
2019-05-16T14:21:50.645Z,94576.66
2019-05-16T14:24:18.087Z,94580.73
2019-05-16T14:26:42.707Z,94580.64
2019-05-16T14:29:08.847Z,94576.23
2019-05-16T14:31:37.384Z,94583.30
2019-05-16T14:34:00.913Z,94590.95
2019-05-16T14:36:27.986Z,94591.27
2019-05-16T14:38:53.051Z,94597.51
2019-05-16T14:41:19.079Z,94590.45
2019-05-16T14:43:46.825Z,94582.47
2019-05-16T14:46:11.134Z,94573.17
2019-05-16T14:48:37.266Z,94576.74
2019-05-16T14:51:03.294Z,94575.91
2019-05-16T14:53:29.227Z,94583.09
2019-05-16T14:55:57.644Z,94582.56
2019-05-16T14:58:21.264Z,94593.11
2019-05-16T15:00:49.306Z,94588.62
2019-05-16T15:03:14.713Z,94599.45
2019-05-16T15:05:42.881Z,94601.28
2019-05-16T15:08:08.205Z,94601.91
2019-05-16T15:10:32.889Z,94591.56
2019-05-16T15:12:58.925Z,94588.00
2019-05-16T15:15:27.873Z,94578.28
2019-05-16T15:17:50.951Z,94589.41
2019-05-16T15:20:18.220Z,94588.09
2019-05-16T15:22:43.049Z,94592.90
2019-05-16T15:25:09.068Z,94582.89
2019-05-16T15:27:37.001Z,94588.50
2019-05-16T15:30:01.091Z,94593.40
2019-05-16T15:32:28.262Z,94589.03
2019-05-16T15:34:53.124Z,94589.03
2019-05-16T15:37:19.428Z,94581.44
2019-05-16T15:39:47.607Z,94578.28
2019-05-16T15:42:12.642Z,94567.56
2019-05-16T15:44:38.898Z,94569.27
2019-05-16T15:47:07.405Z,94561.83
2019-05-16T15:49:30.940Z,94560.67
2019-05-16T15:51:56.990Z,94554.97
2019-05-16T15:54:23.889Z,94552.41
2019-05-16T15:56:49.887Z,94544.02
2019-05-16T15:59:17.945Z,94537.16
2019-05-16T16:01:41.946Z,94538.49
2019-05-16T16:04:09.768Z,94547.70
2019-05-16T16:06:37.972Z,94548.20
2019-05-16T16:09:02.483Z,94547.30
2019-05-16T16:11:28.563Z,94553.23
2019-05-16T16:13:57.531Z,94554.64
2019-05-16T16:16:20.874Z,94559.25
2019-05-16T16:18:46.986Z,94563.74
2019-05-16T16:21:12.914Z,94565.07
2019-05-16T16:23:38.958Z,94563.66
2019-05-16T16:26:07.156Z,94559.96
2019-05-16T16:28:30.998Z,94555.68
2019-05-16T16:30:57.148Z,94562.20
2019-05-16T16:33:27.328Z,94569.14
2019-05-16T16:35:49.082Z,94574.58
2019-05-16T16:38:16.966Z,94577.33
2019-05-16T16:40:41.102Z,94577.23
2019-05-16T16:43:09.252Z,94573.34
2019-05-16T16:45:35.278Z,94572.42
2019-05-16T16:48:01.308Z,94572.42
2019-05-16T16:50:27.311Z,94584.80
2019-05-16T16:52:53.347Z,94583.06
2019-05-16T16:55:19.460Z,94579.90
2019-05-16T16:57:47.258Z,94587.58
2019-05-16T17:00:11.484Z,94597.27
2019-05-16T17:02:37.781Z,94595.44
2019-05-16T17:05:03.551Z,94600.75
2019-05-16T17:07:29.549Z,94594.23
2019-05-16T17:10:06.994Z,94596.47
2019-05-16T17:12:33.477Z,94598.51
2019-05-16T17:14:59.654Z,94603.91
2019-05-16T17:17:26.561Z,94599.02
2019-05-16T17:19:51.741Z,94607.52
2019-05-16T17:22:30.670Z,94614.16
2019-05-16T17:25:00.815Z,94603.12
2019-05-16T17:27:27.033Z,94604.95
2019-05-16T17:29:53.502Z,94609.77
2019-05-16T17:32:20.170Z,94619.78
2019-05-16T17:34:46.173Z,94627.95
2019-05-16T17:37:12.222Z,94638.48
2019-05-16T17:39:38.329Z,94642.47
2019-05-16T17:42:04.554Z,94650.77
2019-05-16T17:44:30.786Z,94649.52
2019-05-16T17:46:57.552Z,94648.73
2019-05-16T17:49:22.932Z,94652.18
2019-05-16T17:51:48.935Z,94661.81
2019-05-16T17:54:17.171Z,94660.48
2019-05-16T17:56:50.532Z,94662.11
2019-05-16T17:59:17.022Z,94665.06
2019-05-16T18:01:42.590Z,94665.77
2019-05-16T18:04:08.748Z,94670.30
2019-05-16T18:06:36.932Z,94667.02
2019-05-16T18:09:00.811Z,94669.55
2019-05-16T18:11:26.914Z,94665.27
2019-05-16T18:13:52.920Z,94663.64
2019-05-16T18:16:18.928Z,94670.38
2019-05-16T18:18:46.874Z,94667.63
2019-05-16T18:21:11.145Z,94675.08
2019-05-16T18:23:37.256Z,94672.95
2019-05-16T18:26:03.274Z,94685.33
2019-05-16T18:28:29.394Z,94691.45
2019-05-16T18:30:56.660Z,94697.67
2019-05-16T18:33:21.469Z,94693.31
2019-05-16T18:35:47.489Z,94697.09
2019-05-16T18:38:13.551Z,94699.01
2019-05-16T18:40:39.548Z,94692.69
2019-05-16T18:43:08.102Z,94704.03
2019-05-16T18:45:31.593Z,94702.50
2019-05-16T18:47:57.876Z,94704.13
2019-05-16T18:50:23.873Z,94706.58
2019-05-16T18:52:52.951Z,94702.91
2019-05-16T18:55:28.140Z,94704.75
2019-05-16T18:57:57.801Z,94707.31
2019-05-16T19:00:24.082Z,94706.28
2019-05-16T19:02:50.082Z,94703.20
2019-05-16T19:05:17.223Z,94708.11
2019-05-16T19:07:42.272Z,94712.63
2019-05-16T19:10:08.273Z,94710.06
2019-05-16T19:12:36.944Z,94711.30
2019-05-16T19:15:12.176Z,94705.07
2019-05-16T19:17:38.167Z,94710.39
2019-05-16T19:20:06.464Z,94712.63
2019-05-16T19:22:30.278Z,94716.63
2019-05-16T19:24:57.434Z,94713.05
2019-05-16T19:27:22.937Z,94718.37
2019-05-16T19:29:49.060Z,94714.26
2019-05-16T19:32:17.090Z,94717.21
2019-05-16T19:34:41.103Z,94712.22
2019-05-16T19:37:07.164Z,94715.70
2019-05-16T19:39:33.109Z,94714.38
2019-05-16T19:41:59.132Z,94723.16
2019-05-16T19:44:27.256Z,94725.73
2019-05-16T19:46:51.207Z,94717.83
2019-05-16T19:49:17.253Z,94712.84
2019-05-16T19:51:46.060Z,94708.03
2019-05-16T19:54:09.259Z,94717.33
2019-05-16T19:56:37.384Z,94713.34
2019-05-16T19:59:01.438Z,94723.86
2019-05-16T20:01:27.582Z,94720.41
2019-05-16T20:03:53.494Z,94713.34
2019-05-16T20:06:19.516Z,94711.72
2019-05-16T20:08:45.523Z,94717.75
2019-05-16T20:11:11.538Z,94716.30
2019-05-16T20:13:37.664Z,94716.83
2019-05-16T20:16:03.658Z,94715.09
2019-05-16T20:18:29.672Z,94719.78
2019-05-16T20:20:56.794Z,94715.38
2019-05-16T20:23:21.708Z,94705.25
2019-05-16T20:25:47.704Z,94706.99
2019-05-16T20:28:13.724Z,94709.98
2019-05-16T20:30:39.752Z,94710.48
2019-05-16T20:33:08.978Z,94709.66
2019-05-16T20:35:31.828Z,94714.97
2019-05-16T20:37:57.824Z,94718.45
2019-05-16T20:40:23.921Z,94721.12
2019-05-16T20:42:49.918Z,94721.95
2019-05-16T20:45:16.925Z,94721.62
2019-05-16T20:47:42.000Z,94721.62
2019-05-16T20:50:08.030Z,94721.12
2019-05-16T20:52:34.046Z,94724.19
2019-05-16T20:55:00.041Z,94720.08
2019-05-16T20:57:26.540Z,94728.06
2019-05-16T20:59:52.050Z,94722.74
2019-05-16T21:02:18.044Z,94727.06
2019-05-16T21:04:46.395Z,94722.24
2019-05-16T21:07:11.227Z,94729.30
2019-05-16T21:09:56.977Z,94731.34
2019-05-16T21:12:20.739Z,94728.77
2019-05-16T21:14:46.984Z,94731.96
2019-05-16T21:17:13.219Z,94733.70
2019-05-16T21:19:39.435Z,94734.70
2019-05-16T21:22:07.215Z,94735.23
2019-05-16T21:24:31.372Z,94737.91
2019-05-16T21:26:57.399Z,94735.23
2019-05-16T21:29:23.416Z,94734.83
2019-05-16T21:31:49.418Z,94731.84
2019-05-16T21:34:16.150Z,94735.73
2019-05-16T21:36:41.575Z,94736.24
2019-05-16T21:39:08.521Z,94737.69
2019-05-16T21:41:33.754Z,94750.57
2019-05-16T21:43:59.787Z,94748.41
2019-05-16T21:46:27.138Z,94756.39
2019-05-16T21:48:51.859Z,94746.28
2019-05-16T21:51:19.731Z,94750.36
2019-05-16T21:53:43.968Z,94753.02
2019-05-16T21:56:09.999Z,94756.18
2019-05-16T21:58:37.039Z,94757.71
2019-05-16T22:01:02.055Z,94753.84
2019-05-16T22:03:28.067Z,94745.75
2019-05-16T22:05:57.314Z,94744.54
2019-05-16T22:08:20.199Z,94742.30
2019-05-16T22:10:46.683Z,94746.37
2019-05-16T22:13:12.273Z,94754.76
2019-05-16T22:15:38.288Z,94752.59
2019-05-16T22:18:04.318Z,94736.65
2019-05-16T22:20:30.332Z,94741.67
2019-05-16T22:22:57.427Z,94747.81
2019-05-16T22:25:22.433Z,94742.58
2019-05-16T22:27:48.967Z,94738.59
2019-05-16T22:30:16.366Z,94732.06
2019-05-16T22:32:40.492Z,94735.52
2019-05-16T22:35:07.822Z,94737.38
2019-05-16T22:37:32.622Z,94743.61
2019-05-16T22:39:59.717Z,94740.55
2019-05-16T22:42:26.631Z,94738.30
2019-05-16T22:44:50.647Z,94735.72
2019-05-16T22:47:17.205Z,94733.98
2019-05-16T22:49:42.683Z,94731.32
2019-05-16T22:52:08.688Z,94721.63
2019-05-16T22:54:36.859Z,94722.13
2019-05-16T22:57:00.706Z,94720.81
2019-05-16T22:59:27.185Z,94722.22
2019-05-16T23:01:52.728Z,94723.97
2019-05-16T23:04:18.759Z,94716.52
2019-05-16T23:06:44.779Z,94713.33
2019-05-16T23:09:10.796Z,94709.55
2019-05-16T23:11:36.818Z,94713.45
2019-05-16T23:14:02.820Z,94709.05
2019-05-16T23:16:28.838Z,94709.05
2019-05-16T23:18:56.978Z,94711.29
2019-05-16T23:21:20.851Z,94713.95
2019-05-16T23:23:46.846Z,94718.85
2019-05-16T23:26:12.884Z,94718.85
2019-05-16T23:28:38.899Z,94723.38
2019-05-16T23:31:04.919Z,94724.70
2019-05-16T23:33:30.940Z,94722.05
2019-05-16T23:35:57.564Z,94707.01
2019-05-16T23:38:22.934Z,94714.45
2019-05-16T23:40:48.968Z,94710.08
2019-05-16T23:43:15.005Z,94702.69
2019-05-16T23:45:41.031Z,94707.51
2019-05-16T23:48:10.289Z,94704.02
2019-05-16T23:50:33.046Z,94712.41
2019-05-16T23:52:59.078Z,94712.83
2019-05-16T23:55:27.623Z,94712.83
2019-05-16T23:57:51.060Z,94715.07
